sensor_id;sensor_type;location;lat;lon;timestamp;temperature;humidity
10278;DHT22;5184;51.376;7.148;2024-01-15T00:02:23;0.50;99.90
10278;DHT22;5184;51.376;7.148;2024-01-15T00:04:51;0.50;99.90
10278;DHT22;5184;51.376;7.148;2024-01-15T00:07:18;0.50;99.90
10278;DHT22;5184;51.376;7.148;2024-01-15T00:09:45;0.40;99.90
10278;DHT22;5184;51.376;7.148;2024-01-15T00:12:11;0.50;99.90
10278;DHT22;5184;51.376;7.148;2024-01-15T00:14:38;0.50;99.90
10278;DHT22;5184;51.376;7.148;2024-01-15T00:17:05;0.50;99.90
10278;DHT22;5184;51.376;7.148;2024-01-15T00:19:33;0.50;99.90
10278;DHT22;5184;51.376;7.148;2024-01-15T00:21:59;0.50;99.90
10278;DHT22;5184;51.376;7.148;2024-01-15T00:24:26;0.50;99.90
10278;DHT22;5184;51.376;7.148;2024-01-15T00:26:52;0.50;99.90
10278;DHT22;5184;51.376;7.148;2024-01-15T00:29:20;0.50;99.90
10278;DHT22;5184;51.376;7.148;2024-01-15T00:31:47;0.50;99.90
10278;DHT22;5184;51.376;7.148;2024-01-15T00:34:14;0.50;99.90
10278;DHT22;5184;51.376;7.148;2024-01-15T00:36:40;0.50;99.90
10278;DHT22;5184;51.376;7.148;2024-01-15T00:39:07;0.50;99.90
10278;DHT22;5184;51.376;7.148;2024-01-15T00:41:34;0.50;99.90
10278;DHT22;5184;51.376;7.148;2024-01-15T00:44:02;0.50;99.90
10278;DHT22;5184;51.376;7.148;2024-01-15T00:46:28;0.50;99.90
10278;DHT22;5184;51.376;7.148;2024-01-15T00:48:55;0.50;99.90
10278;DHT22;5184;51.376;7.148;2024-01-15T00:51:21;0.50;99.90
10278;DHT22;5184;51.376;7.148;2024-01-15T00:53:49;0.50;99.90
10278;DHT22;5184;51.376;7.148;2024-01-15T00:56:16;0.50;99.90
10278;DHT22;5184;51.376;7.148;2024-01-15T00:58:43;0.50;99.90
10278;DHT22;5184;51.376;7.148;2024-01-15T01:01:09;0.50;99.90
10278;DHT22;5184;51.376;7.148;2024-01-15T01:03:36;0.50;99.90
10278;DHT22;5184;51.376;7.148;2024-01-15T01:06:03;0.50;99.90
10278;DHT22;5184;51.376;7.148;2024-01-15T01:08:29;0.50;99.90
10278;DHT22;5184;51.376;7.148;2024-01-15T01:10:57;0.50;99.90
10278;DHT22;5184;51.376;7.148;2024-01-15T01:13:23;0.50;99.90
10278;DHT22;5184;51.376;7.148;2024-01-15T01:15:50;0.50;99.90
10278;DHT22;5184;51.376;7.148;2024-01-15T01:18:16;0.50;99.90
10278;DHT22;5184;51.376;7.148;2024-01-15T01:20:44;0.50;99.90
10278;DHT22;5184;51.376;7.148;2024-01-15T01:23:11;0.50;99.90
10278;DHT22;5184;51.376;7.148;2024-01-15T01:25:38;0.50;99.90
10278;DHT22;5184;51.376;7.148;2024-01-15T01:28:04;0.50;99.90
10278;DHT22;5184;51.376;7.148;2024-01-15T01:30:31;0.50;99.90
10278;DHT22;5184;51.376;7.148;2024-01-15T01:32:57;0.50;99.90
10278;DHT22;5184;51.376;7.148;2024-01-15T01:35:24;0.50;99.90
10278;DHT22;5184;51.376;7.148;2024-01-15T01:37:51;0.50;99.90
10278;DHT22;5184;51.376;7.148;2024-01-15T01:40:18;0.50;99.90
10278;DHT22;5184;51.376;7.148;2024-01-15T01:42:45;0.50;99.90
10278;DHT22;5184;51.376;7.148;2024-01-15T01:45:11;0.50;99.90
10278;DHT22;5184;51.376;7.148;2024-01-15T01:47:38;0.50;99.90
10278;DHT22;5184;51.376;7.148;2024-01-15T01:50:05;0.50;99.90
10278;DHT22;5184;51.376;7.148;2024-01-15T01:52:32;0.50;99.90
10278;DHT22;5184;51.376;7.148;2024-01-15T01:54:59;0.50;99.90
10278;DHT22;5184;51.376;7.148;2024-01-15T01:57:26;0.50;99.90
10278;DHT22;5184;51.376;7.148;2024-01-15T01:59:53;0.50;99.90
10278;DHT22;5184;51.376;7.148;2024-01-15T02:02:20;0.50;99.90
10278;DHT22;5184;51.376;7.148;2024-01-15T02:04:47;0.60;99.90
10278;DHT22;5184;51.376;7.148;2024-01-15T02:07:13;0.50;99.90
10278;DHT22;5184;51.376;7.148;2024-01-15T02:09:41;0.50;99.90
10278;DHT22;5184;51.376;7.148;2024-01-15T02:12:08;0.50;99.90
10278;DHT22;5184;51.376;7.148;2024-01-15T02:14:34;0.50;99.90
10278;DHT22;5184;51.376;7.148;2024-01-15T02:17:01;0.50;99.90
10278;DHT22;5184;51.376;7.148;2024-01-15T02:19:27;0.50;99.90
10278;DHT22;5184;51.376;7.148;2024-01-15T02:21:55;0.50;99.90
10278;DHT22;5184;51.376;7.148;2024-01-15T02:24:22;0.60;99.90
10278;DHT22;5184;51.376;7.148;2024-01-15T02:26:49;0.50;99.90
10278;DHT22;5184;51.376;7.148;2024-01-15T02:29:15;0.50;99.90
10278;DHT22;5184;51.376;7.148;2024-01-15T02:31:42;0.50;99.90
10278;DHT22;5184;51.376;7.148;2024-01-15T02:34:09;0.60;99.90
10278;DHT22;5184;51.376;7.148;2024-01-15T02:36:37;0.60;99.90
10278;DHT22;5184;51.376;7.148;2024-01-15T02:39:04;0.60;99.90
10278;DHT22;5184;51.376;7.148;2024-01-15T02:41:31;0.60;99.90
10278;DHT22;5184;51.376;7.148;2024-01-15T02:43:57;0.60;99.90
10278;DHT22;5184;51.376;7.148;2024-01-15T02:46:24;0.60;99.90
10278;DHT22;5184;51.376;7.148;2024-01-15T02:48:51;0.60;99.90
10278;DHT22;5184;51.376;7.148;2024-01-15T02:51:19;0.60;99.90
10278;DHT22;5184;51.376;7.148;2024-01-15T02:53:46;0.60;99.90
10278;DHT22;5184;51.376;7.148;2024-01-15T02:56:13;0.60;99.90
10278;DHT22;5184;51.376;7.148;2024-01-15T02:58:39;0.60;99.90
10278;DHT22;5184;51.376;7.148;2024-01-15T03:01:06;0.60;99.90
10278;DHT22;5184;51.376;7.148;2024-01-15T03:03:33;0.60;99.90
10278;DHT22;5184;51.376;7.148;2024-01-15T03:06:01;0.60;99.90
10278;DHT22;5184;51.376;7.148;2024-01-15T03:08:26;0.60;99.90
10278;DHT22;5184;51.376;7.148;2024-01-15T03:10:53;0.60;99.90
10278;DHT22;5184;51.376;7.148;2024-01-15T03:13:20;0.60;99.90
10278;DHT22;5184;51.376;7.148;2024-01-15T03:15:48;0.60;99.90
10278;DHT22;5184;51.376;7.148;2024-01-15T03:18:15;0.60;99.90
10278;DHT22;5184;51.376;7.148;2024-01-15T03:20:42;0.60;99.90
10278;DHT22;5184;51.376;7.148;2024-01-15T03:23:08;0.60;99.90
10278;DHT22;5184;51.376;7.148;2024-01-15T03:25:35;0.60;99.90
10278;DHT22;5184;51.376;7.148;2024-01-15T03:28:02;0.60;99.90
10278;DHT22;5184;51.376;7.148;2024-01-15T03:30:29;0.60;99.90
10278;DHT22;5184;51.376;7.148;2024-01-15T03:32:55;0.60;99.90
10278;DHT22;5184;51.376;7.148;2024-01-15T03:35:23;0.60;99.90
10278;DHT22;5184;51.376;7.148;2024-01-15T03:37:50;0.60;99.90
10278;DHT22;5184;51.376;7.148;2024-01-15T03:40:17;0.60;99.90
10278;DHT22;5184;51.376;7.148;2024-01-15T03:42:43;0.70;99.90
10278;DHT22;5184;51.376;7.148;2024-01-15T03:45:11;0.60;99.90
10278;DHT22;5184;51.376;7.148;2024-01-15T03:47:38;0.60;99.90
10278;DHT22;5184;51.376;7.148;2024-01-15T03:50:06;0.70;99.90
10278;DHT22;5184;51.376;7.148;2024-01-15T03:52:32;0.70;99.90
10278;DHT22;5184;51.376;7.148;2024-01-15T03:54:59;0.70;99.90
10278;DHT22;5184;51.376;7.148;2024-01-15T03:57:26;1.30;99.90
10278;DHT22;5184;51.376;7.148;2024-01-15T03:59:54;0.70;99.90
10278;DHT22;5184;51.376;7.148;2024-01-15T04:02:21;0.70;99.90
10278;DHT22;5184;51.376;7.148;2024-01-15T04:04:48;0.70;99.90
10278;DHT22;5184;51.376;7.148;2024-01-15T04:07:14;0.70;99.90
10278;DHT22;5184;51.376;7.148;2024-01-15T04:09:41;0.70;99.90
10278;DHT22;5184;51.376;7.148;2024-01-15T04:12:08;0.70;99.90
10278;DHT22;5184;51.376;7.148;2024-01-15T04:14:35;0.70;99.90
10278;DHT22;5184;51.376;7.148;2024-01-15T04:17:03;0.70;99.90
10278;DHT22;5184;51.376;7.148;2024-01-15T04:19:30;0.70;99.90
10278;DHT22;5184;51.376;7.148;2024-01-15T04:21:57;0.70;99.90
10278;DHT22;5184;51.376;7.148;2024-01-15T04:24:23;0.70;99.90
10278;DHT22;5184;51.376;7.148;2024-01-15T04:26:51;0.70;99.90
10278;DHT22;5184;51.376;7.148;2024-01-15T04:29:18;0.70;99.90
10278;DHT22;5184;51.376;7.148;2024-01-15T04:31:45;0.70;99.90
10278;DHT22;5184;51.376;7.148;2024-01-15T04:34:11;0.70;99.90
10278;DHT22;5184;51.376;7.148;2024-01-15T04:36:38;0.80;99.90
10278;DHT22;5184;51.376;7.148;2024-01-15T04:39:05;0.80;99.90
10278;DHT22;5184;51.376;7.148;2024-01-15T04:41:33;0.80;99.90
10278;DHT22;5184;51.376;7.148;2024-01-15T04:43:59;0.70;99.90
10278;DHT22;5184;51.376;7.148;2024-01-15T04:46:27;0.80;99.90
10278;DHT22;5184;51.376;7.148;2024-01-15T04:48:53;0.80;99.90
10278;DHT22;5184;51.376;7.148;2024-01-15T04:51:20;0.70;99.90
10278;DHT22;5184;51.376;7.148;2024-01-15T04:53:47;0.80;99.90
10278;DHT22;5184;51.376;7.148;2024-01-15T04:56:14;0.80;99.90
10278;DHT22;5184;51.376;7.148;2024-01-15T04:58:40;0.80;99.90
10278;DHT22;5184;51.376;7.148;2024-01-15T05:01:07;0.80;99.90
10278;DHT22;5184;51.376;7.148;2024-01-15T05:03:34;0.80;99.90
10278;DHT22;5184;51.376;7.148;2024-01-15T05:06:02;0.80;99.90
10278;DHT22;5184;51.376;7.148;2024-01-15T05:08:28;0.80;99.90
10278;DHT22;5184;51.376;7.148;2024-01-15T05:10:55;0.80;99.90
10278;DHT22;5184;51.376;7.148;2024-01-15T05:13:21;0.80;99.90
10278;DHT22;5184;51.376;7.148;2024-01-15T05:15:49;0.80;99.90
10278;DHT22;5184;51.376;7.148;2024-01-15T05:18:16;0.80;99.90
10278;DHT22;5184;51.376;7.148;2024-01-15T05:20:42;0.80;99.90
10278;DHT22;5184;51.376;7.148;2024-01-15T05:23:10;0.80;99.90
10278;DHT22;5184;51.376;7.148;2024-01-15T05:25:37;0.80;99.90
10278;DHT22;5184;51.376;7.148;2024-01-15T05:28:05;0.80;99.90
10278;DHT22;5184;51.376;7.148;2024-01-15T05:30:32;0.70;99.90
10278;DHT22;5184;51.376;7.148;2024-01-15T05:33:00;0.70;99.90
10278;DHT22;5184;51.376;7.148;2024-01-15T05:35:26;0.70;99.90
10278;DHT22;5184;51.376;7.148;2024-01-15T05:37:53;0.70;99.90
10278;DHT22;5184;51.376;7.148;2024-01-15T05:40:19;0.70;99.90
10278;DHT22;5184;51.376;7.148;2024-01-15T05:42:46;0.70;99.90
10278;DHT22;5184;51.376;7.148;2024-01-15T05:45:13;0.70;99.90
10278;DHT22;5184;51.376;7.148;2024-01-15T05:47:41;0.80;99.90
10278;DHT22;5184;51.376;7.148;2024-01-15T05:50:08;0.70;99.90
10278;DHT22;5184;51.376;7.148;2024-01-15T05:52:35;0.80;99.90
10278;DHT22;5184;51.376;7.148;2024-01-15T05:55:01;0.80;99.90
10278;DHT22;5184;51.376;7.148;2024-01-15T05:57:28;0.80;99.90
10278;DHT22;5184;51.376;7.148;2024-01-15T05:59:55;0.80;99.90
10278;DHT22;5184;51.376;7.148;2024-01-15T06:02:23;0.80;99.90
10278;DHT22;5184;51.376;7.148;2024-01-15T06:04:50;0.80;99.90
10278;DHT22;5184;51.376;7.148;2024-01-15T06:07:17;0.80;99.90
10278;DHT22;5184;51.376;7.148;2024-01-15T06:09:43;0.80;99.90
10278;DHT22;5184;51.376;7.148;2024-01-15T06:12:10;0.80;99.90
10278;DHT22;5184;51.376;7.148;2024-01-15T06:14:37;0.80;99.90
10278;DHT22;5184;51.376;7.148;2024-01-15T06:17:04;0.80;99.90
10278;DHT22;5184;51.376;7.148;2024-01-15T06:19:32;0.80;99.90
10278;DHT22;5184;51.376;7.148;2024-01-15T06:21:58;0.80;99.90
10278;DHT22;5184;51.376;7.148;2024-01-15T06:24:25;0.80;99.90
10278;DHT22;5184;51.376;7.148;2024-01-15T06:26:52;0.80;99.90
10278;DHT22;5184;51.376;7.148;2024-01-15T06:29:18;0.40;99.90
10278;DHT22;5184;51.376;7.148;2024-01-15T06:31:45;0.80;99.90
10278;DHT22;5184;51.376;7.148;2024-01-15T06:34:12;0.80;99.90
10278;DHT22;5184;51.376;7.148;2024-01-15T06:36:39;0.80;99.90
10278;DHT22;5184;51.376;7.148;2024-01-15T06:39:05;0.80;99.90
10278;DHT22;5184;51.376;7.148;2024-01-15T06:41:32;0.80;99.90
10278;DHT22;5184;51.376;7.148;2024-01-15T06:43:59;0.80;99.90
10278;DHT22;5184;51.376;7.148;2024-01-15T06:46:25;0.80;99.90
10278;DHT22;5184;51.376;7.148;2024-01-15T06:48:53;0.80;99.90
10278;DHT22;5184;51.376;7.148;2024-01-15T06:51:19;0.80;99.90
10278;DHT22;5184;51.376;7.148;2024-01-15T06:53:46;0.80;99.90
10278;DHT22;5184;51.376;7.148;2024-01-15T06:56:12;0.80;99.90
10278;DHT22;5184;51.376;7.148;2024-01-15T06:58:40;0.80;99.90
10278;DHT22;5184;51.376;7.148;2024-01-15T07:01:06;0.80;99.90
10278;DHT22;5184;51.376;7.148;2024-01-15T07:03:33;0.80;99.90
10278;DHT22;5184;51.376;7.148;2024-01-15T07:05:59;0.80;99.90
10278;DHT22;5184;51.376;7.148;2024-01-15T07:08:27;0.80;99.90
10278;DHT22;5184;51.376;7.148;2024-01-15T07:10:54;0.80;99.90
10278;DHT22;5184;51.376;7.148;2024-01-15T07:13:20;0.90;99.90
10278;DHT22;5184;51.376;7.148;2024-01-15T07:15:47;0.80;99.90
10278;DHT22;5184;51.376;7.148;2024-01-15T07:18:14;0.80;99.90
10278;DHT22;5184;51.376;7.148;2024-01-15T07:20:41;0.80;99.90
10278;DHT22;5184;51.376;7.148;2024-01-15T07:23:07;0.80;99.90
10278;DHT22;5184;51.376;7.148;2024-01-15T07:25:35;0.80;99.90
10278;DHT22;5184;51.376;7.148;2024-01-15T07:28:02;0.80;99.90
10278;DHT22;5184;51.376;7.148;2024-01-15T07:30:29;0.80;99.90
10278;DHT22;5184;51.376;7.148;2024-01-15T07:32:56;0.80;99.90
10278;DHT22;5184;51.376;7.148;2024-01-15T07:35:22;0.80;99.90
10278;DHT22;5184;51.376;7.148;2024-01-15T07:37:49;0.80;99.90
10278;DHT22;5184;51.376;7.148;2024-01-15T07:40:15;0.80;99.90
10278;DHT22;5184;51.376;7.148;2024-01-15T07:42:42;0.80;99.90
10278;DHT22;5184;51.376;7.148;2024-01-15T07:45:10;0.80;99.90
10278;DHT22;5184;51.376;7.148;2024-01-15T07:47:36;0.80;99.90
10278;DHT22;5184;51.376;7.148;2024-01-15T07:50:03;0.80;99.90
10278;DHT22;5184;51.376;7.148;2024-01-15T07:52:30;0.80;99.90
10278;DHT22;5184;51.376;7.148;2024-01-15T07:54:57;0.80;99.90
10278;DHT22;5184;51.376;7.148;2024-01-15T07:57:24;0.70;99.90
10278;DHT22;5184;51.376;7.148;2024-01-15T07:59:51;0.70;99.90
10278;DHT22;5184;51.376;7.148;2024-01-15T08:02:18;0.70;99.90
10278;DHT22;5184;51.376;7.148;2024-01-15T08:04:45;0.70;99.90
10278;DHT22;5184;51.376;7.148;2024-01-15T08:07:11;0.70;99.90
10278;DHT22;5184;51.376;7.148;2024-01-15T08:09:38;0.70;99.90
10278;DHT22;5184;51.376;7.148;2024-01-15T08:12:05;0.70;99.90
10278;DHT22;5184;51.376;7.148;2024-01-15T08:14:32;0.70;99.90
10278;DHT22;5184;51.376;7.148;2024-01-15T08:16:59;0.70;99.90
10278;DHT22;5184;51.376;7.148;2024-01-15T08:19:25;0.70;99.90
10278;DHT22;5184;51.376;7.148;2024-01-15T08:21:52;0.70;99.90
10278;DHT22;5184;51.376;7.148;2024-01-15T08:24:19;0.70;99.90
10278;DHT22;5184;51.376;7.148;2024-01-15T08:26:47;0.70;99.90
10278;DHT22;5184;51.376;7.148;2024-01-15T08:29:14;0.70;99.90
10278;DHT22;5184;51.376;7.148;2024-01-15T08:31:41;0.60;99.90
10278;DHT22;5184;51.376;7.148;2024-01-15T08:34:08;0.60;99.90
10278;DHT22;5184;51.376;7.148;2024-01-15T08:36:34;0.60;99.90
10278;DHT22;5184;51.376;7.148;2024-01-15T08:39:02;0.60;99.90
10278;DHT22;5184;51.376;7.148;2024-01-15T08:41:28;0.60;99.90
10278;DHT22;5184;51.376;7.148;2024-01-15T08:43:55;0.60;99.90
10278;DHT22;5184;51.376;7.148;2024-01-15T08:46:22;0.60;99.90
10278;DHT22;5184;51.376;7.148;2024-01-15T08:48:48;0.60;99.90
10278;DHT22;5184;51.376;7.148;2024-01-15T08:51:15;0.60;99.90
10278;DHT22;5184;51.376;7.148;2024-01-15T08:53:41;0.60;99.90
10278;DHT22;5184;51.376;7.148;2024-01-15T08:56:09;0.60;99.90
10278;DHT22;5184;51.376;7.148;2024-01-15T08:58:36;0.60;99.90
10278;DHT22;5184;51.376;7.148;2024-01-15T09:01:03;0.60;99.90
10278;DHT22;5184;51.376;7.148;2024-01-15T09:03:29;0.60;99.90
10278;DHT22;5184;51.376;7.148;2024-01-15T09:05:56;0.60;99.90
10278;DHT22;5184;51.376;7.148;2024-01-15T09:08:22;0.60;99.90
10278;DHT22;5184;51.376;7.148;2024-01-15T09:10:49;0.60;99.90
10278;DHT22;5184;51.376;7.148;2024-01-15T09:13:16;0.60;99.90
10278;DHT22;5184;51.376;7.148;2024-01-15T09:15:43;0.60;99.90
10278;DHT22;5184;51.376;7.148;2024-01-15T09:18:10;0.60;99.90
10278;DHT22;5184;51.376;7.148;2024-01-15T09:20:36;0.50;99.90
10278;DHT22;5184;51.376;7.148;2024-01-15T09:23:03;0.50;99.90
10278;DHT22;5184;51.376;7.148;2024-01-15T09:25:29;0.50;99.90
10278;DHT22;5184;51.376;7.148;2024-01-15T09:27:57;0.40;99.90
10278;DHT22;5184;51.376;7.148;2024-01-15T09:30:24;0.40;99.90
10278;DHT22;5184;51.376;7.148;2024-01-15T09:32:51;0.40;99.90
10278;DHT22;5184;51.376;7.148;2024-01-15T09:35:17;0.40;99.90
10278;DHT22;5184;51.376;7.148;2024-01-15T09:37:44;0.40;99.90
10278;DHT22;5184;51.376;7.148;2024-01-15T09:40:12;0.40;99.90
10278;DHT22;5184;51.376;7.148;2024-01-15T09:42:42;0.40;99.90
10278;DHT22;5184;51.376;7.148;2024-01-15T09:45:08;0.40;99.90
10278;DHT22;5184;51.376;7.148;2024-01-15T09:47:35;0.40;99.90
10278;DHT22;5184;51.376;7.148;2024-01-15T09:50:02;0.40;99.90
10278;DHT22;5184;51.376;7.148;2024-01-15T09:52:29;0.40;99.90
10278;DHT22;5184;51.376;7.148;2024-01-15T09:54:55;0.40;99.90
10278;DHT22;5184;51.376;7.148;2024-01-15T09:57:21;0.50;99.90
10278;DHT22;5184;51.376;7.148;2024-01-15T09:59:50;0.50;99.90
10278;DHT22;5184;51.376;7.148;2024-01-15T10:02:16;0.50;99.90
10278;DHT22;5184;51.376;7.148;2024-01-15T10:04:44;0.50;99.90
10278;DHT22;5184;51.376;7.148;2024-01-15T10:07:10;0.50;99.90
10278;DHT22;5184;51.376;7.148;2024-01-15T10:09:37;0.60;99.90
10278;DHT22;5184;51.376;7.148;2024-01-15T10:12:04;0.60;99.90
10278;DHT22;5184;51.376;7.148;2024-01-15T10:14:31;0.60;99.90
10278;DHT22;5184;51.376;7.148;2024-01-15T10:16:58;0.60;99.90
10278;DHT22;5184;51.376;7.148;2024-01-15T10:19:26;0.60;99.90
10278;DHT22;5184;51.376;7.148;2024-01-15T10:21:53;0.70;99.90
10278;DHT22;5184;51.376;7.148;2024-01-15T10:24:21;0.70;99.90
10278;DHT22;5184;51.376;7.148;2024-01-15T10:26:48;0.80;99.90
10278;DHT22;5184;51.376;7.148;2024-01-15T10:29:14;0.70;99.90
10278;DHT22;5184;51.376;7.148;2024-01-15T10:31:41;0.80;99.90
10278;DHT22;5184;51.376;7.148;2024-01-15T10:34:11;0.80;99.90
10278;DHT22;5184;51.376;7.148;2024-01-15T10:36:38;0.80;99.90
10278;DHT22;5184;51.376;7.148;2024-01-15T10:39:04;0.70;99.90
10278;DHT22;5184;51.376;7.148;2024-01-15T10:41:31;0.70;99.90
10278;DHT22;5184;51.376;7.148;2024-01-15T10:43:58;0.70;99.90
10278;DHT22;5184;51.376;7.148;2024-01-15T10:46:25;0.70;99.90
10278;DHT22;5184;51.376;7.148;2024-01-15T10:48:51;0.70;99.90
10278;DHT22;5184;51.376;7.148;2024-01-15T10:51:18;0.90;99.90
10278;DHT22;5184;51.376;7.148;2024-01-15T10:53:45;0.80;99.90
10278;DHT22;5184;51.376;7.148;2024-01-15T10:56:13;0.80;99.90
10278;DHT22;5184;51.376;7.148;2024-01-15T10:58:39;0.80;99.90
10278;DHT22;5184;51.376;7.148;2024-01-15T11:01:06;0.80;99.90
10278;DHT22;5184;51.376;7.148;2024-01-15T11:03:32;0.90;99.90
10278;DHT22;5184;51.376;7.148;2024-01-15T11:06:00;1.00;99.90
10278;DHT22;5184;51.376;7.148;2024-01-15T11:08:26;1.00;99.90
10278;DHT22;5184;51.376;7.148;2024-01-15T11:10:53;1.00;99.90
10278;DHT22;5184;51.376;7.148;2024-01-15T11:13:20;1.00;99.90
10278;DHT22;5184;51.376;7.148;2024-01-15T11:15:54;0.90;99.90
10278;DHT22;5184;51.376;7.148;2024-01-15T11:18:21;0.90;99.90
10278;DHT22;5184;51.376;7.148;2024-01-15T11:23:46;0.90;99.90
10278;DHT22;5184;51.376;7.148;2024-01-15T11:28:51;1.00;99.90
10278;DHT22;5184;51.376;7.148;2024-01-15T11:31:18;1.00;99.90
10278;DHT22;5184;51.376;7.148;2024-01-15T11:33:49;0.90;99.90
10278;DHT22;5184;51.376;7.148;2024-01-15T11:36:16;0.90;99.90
10278;DHT22;5184;51.376;7.148;2024-01-15T11:38:43;1.10;99.90
10278;DHT22;5184;51.376;7.148;2024-01-15T11:41:14;1.00;99.90
10278;DHT22;5184;51.376;7.148;2024-01-15T11:43:41;0.90;99.90
10278;DHT22;5184;51.376;7.148;2024-01-15T11:46:10;1.00;99.90
10278;DHT22;5184;51.376;7.148;2024-01-15T11:48:42;1.00;99.90
10278;DHT22;5184;51.376;7.148;2024-01-15T11:51:06;1.30;99.90
10278;DHT22;5184;51.376;7.148;2024-01-15T11:53:32;1.30;99.90
10278;DHT22;5184;51.376;7.148;2024-01-15T11:56:01;1.20;99.90
10278;DHT22;5184;51.376;7.148;2024-01-15T11:58:28;1.10;99.90
10278;DHT22;5184;51.376;7.148;2024-01-15T12:00:55;1.00;99.90
10278;DHT22;5184;51.376;7.148;2024-01-15T12:03:22;1.10;99.90
10278;DHT22;5184;51.376;7.148;2024-01-15T12:05:51;1.00;99.90
10278;DHT22;5184;51.376;7.148;2024-01-15T12:08:20;1.00;99.90
10278;DHT22;5184;51.376;7.148;2024-01-15T12:10:43;1.00;99.90
10278;DHT22;5184;51.376;7.148;2024-01-15T12:13:12;1.00;99.90
10278;DHT22;5184;51.376;7.148;2024-01-15T12:15:38;0.90;99.90
10278;DHT22;5184;51.376;7.148;2024-01-15T12:18:04;0.90;99.90
10278;DHT22;5184;51.376;7.148;2024-01-15T12:20:31;0.90;99.90
10278;DHT22;5184;51.376;7.148;2024-01-15T12:22:58;1.60;99.90
10278;DHT22;5184;51.376;7.148;2024-01-15T12:25:24;0.80;99.90
10278;DHT22;5184;51.376;7.148;2024-01-15T12:27:52;0.80;99.90
10278;DHT22;5184;51.376;7.148;2024-01-15T12:30:18;0.80;99.90
10278;DHT22;5184;51.376;7.148;2024-01-15T12:32:45;0.90;99.90
10278;DHT22;5184;51.376;7.148;2024-01-15T12:35:12;0.90;99.90
10278;DHT22;5184;51.376;7.148;2024-01-15T12:37:40;1.00;99.90
10278;DHT22;5184;51.376;7.148;2024-01-15T12:40:08;1.40;99.90
10278;DHT22;5184;51.376;7.148;2024-01-15T12:42:34;1.40;99.90
10278;DHT22;5184;51.376;7.148;2024-01-15T12:45:00;1.60;99.90
10278;DHT22;5184;51.376;7.148;2024-01-15T12:47:27;1.60;99.90
10278;DHT22;5184;51.376;7.148;2024-01-15T12:49:54;1.70;99.90
10278;DHT22;5184;51.376;7.148;2024-01-15T12:52:21;1.70;99.90
10278;DHT22;5184;51.376;7.148;2024-01-15T12:54:48;1.70;99.90
10278;DHT22;5184;51.376;7.148;2024-01-15T12:57:14;1.50;99.90
10278;DHT22;5184;51.376;7.148;2024-01-15T12:59:41;1.40;99.90
10278;DHT22;5184;51.376;7.148;2024-01-15T13:02:07;1.30;99.90
10278;DHT22;5184;51.376;7.148;2024-01-15T13:04:34;1.20;99.90
10278;DHT22;5184;51.376;7.148;2024-01-15T13:07:01;1.20;99.90
10278;DHT22;5184;51.376;7.148;2024-01-15T13:09:27;1.10;99.90
10278;DHT22;5184;51.376;7.148;2024-01-15T13:11:54;1.00;99.90
10278;DHT22;5184;51.376;7.148;2024-01-15T13:14:20;1.00;99.90
10278;DHT22;5184;51.376;7.148;2024-01-15T13:16:47;0.90;99.90
10278;DHT22;5184;51.376;7.148;2024-01-15T13:19:14;0.90;99.90
10278;DHT22;5184;51.376;7.148;2024-01-15T13:21:40;0.90;99.90
10278;DHT22;5184;51.376;7.148;2024-01-15T13:24:08;1.00;99.90
10278;DHT22;5184;51.376;7.148;2024-01-15T13:26:35;1.00;99.90
10278;DHT22;5184;51.376;7.148;2024-01-15T13:29:03;1.60;99.90
10278;DHT22;5184;51.376;7.148;2024-01-15T13:31:31;1.10;99.90
10278;DHT22;5184;51.376;7.148;2024-01-15T13:33:58;1.10;99.90
10278;DHT22;5184;51.376;7.148;2024-01-15T13:36:26;1.10;99.90
10278;DHT22;5184;51.376;7.148;2024-01-15T13:38:53;1.10;99.90
10278;DHT22;5184;51.376;7.148;2024-01-15T13:41:20;1.20;99.90
10278;DHT22;5184;51.376;7.148;2024-01-15T13:43:49;1.20;99.90
10278;DHT22;5184;51.376;7.148;2024-01-15T13:46:15;1.30;99.90
10278;DHT22;5184;51.376;7.148;2024-01-15T13:48:42;1.30;99.90
10278;DHT22;5184;51.376;7.148;2024-01-15T13:51:09;1.30;99.90
10278;DHT22;5184;51.376;7.148;2024-01-15T13:53:37;1.20;99.90
10278;DHT22;5184;51.376;7.148;2024-01-15T13:56:04;1.20;99.90
10278;DHT22;5184;51.376;7.148;2024-01-15T13:58:31;1.10;99.90
10278;DHT22;5184;51.376;7.148;2024-01-15T14:00:59;1.10;99.90
10278;DHT22;5184;51.376;7.148;2024-01-15T14:03:25;1.10;99.90
10278;DHT22;5184;51.376;7.148;2024-01-15T14:05:52;1.10;99.90
10278;DHT22;5184;51.376;7.148;2024-01-15T14:08:19;1.20;99.90
10278;DHT22;5184;51.376;7.148;2024-01-15T14:10:46;1.20;99.90
10278;DHT22;5184;51.376;7.148;2024-01-15T14:13:13;1.20;99.90
10278;DHT22;5184;51.376;7.148;2024-01-15T14:15:41;1.20;99.90
10278;DHT22;5184;51.376;7.148;2024-01-15T14:20:37;1.10;99.90
10278;DHT22;5184;51.376;7.148;2024-01-15T14:23:04;1.20;99.90
10278;DHT22;5184;51.376;7.148;2024-01-15T14:25:32;1.10;99.90
10278;DHT22;5184;51.376;7.148;2024-01-15T14:27:59;1.10;99.90
10278;DHT22;5184;51.376;7.148;2024-01-15T14:30:26;1.10;99.90
10278;DHT22;5184;51.376;7.148;2024-01-15T14:32:52;1.10;99.90
10278;DHT22;5184;51.376;7.148;2024-01-15T14:35:19;1.10;99.90
10278;DHT22;5184;51.376;7.148;2024-01-15T14:37:45;1.10;99.90
10278;DHT22;5184;51.376;7.148;2024-01-15T14:40:13;1.00;99.90
10278;DHT22;5184;51.376;7.148;2024-01-15T14:42:40;1.00;99.90
10278;DHT22;5184;51.376;7.148;2024-01-15T14:45:08;1.00;99.90
10278;DHT22;5184;51.376;7.148;2024-01-15T14:47:35;1.00;99.90
10278;DHT22;5184;51.376;7.148;2024-01-15T14:50:02;1.00;99.90
10278;DHT22;5184;51.376;7.148;2024-01-15T14:52:29;1.00;99.90
10278;DHT22;5184;51.376;7.148;2024-01-15T14:54:57;1.10;99.90
10278;DHT22;5184;51.376;7.148;2024-01-15T14:57:24;1.00;99.90
10278;DHT22;5184;51.376;7.148;2024-01-15T14:59:51;1.10;99.90
10278;DHT22;5184;51.376;7.148;2024-01-15T15:02:19;1.10;99.90
10278;DHT22;5184;51.376;7.148;2024-01-15T15:04:46;1.10;99.90
10278;DHT22;5184;51.376;7.148;2024-01-15T15:07:13;1.10;99.90
10278;DHT22;5184;51.376;7.148;2024-01-15T15:09:40;1.10;99.90
10278;DHT22;5184;51.376;7.148;2024-01-15T15:12:08;1.10;99.90
10278;DHT22;5184;51.376;7.148;2024-01-15T15:14:34;1.10;99.90
10278;DHT22;5184;51.376;7.148;2024-01-15T15:17:02;1.10;99.90
10278;DHT22;5184;51.376;7.148;2024-01-15T15:19:29;1.00;99.90
10278;DHT22;5184;51.376;7.148;2024-01-15T15:21:56;1.00;99.90
10278;DHT22;5184;51.376;7.148;2024-01-15T15:24:23;1.00;99.90
10278;DHT22;5184;51.376;7.148;2024-01-15T15:26:50;1.00;99.90
10278;DHT22;5184;51.376;7.148;2024-01-15T15:29:17;0.90;99.90
10278;DHT22;5184;51.376;7.148;2024-01-15T15:31:44;0.90;99.90
10278;DHT22;5184;51.376;7.148;2024-01-15T15:34:10;0.90;99.90
10278;DHT22;5184;51.376;7.148;2024-01-15T15:36:37;0.90;99.90
10278;DHT22;5184;51.376;7.148;2024-01-15T15:39:03;0.90;99.90
10278;DHT22;5184;51.376;7.148;2024-01-15T15:41:30;0.90;99.90
10278;DHT22;5184;51.376;7.148;2024-01-15T15:43:57;0.90;99.90
10278;DHT22;5184;51.376;7.148;2024-01-15T15:46:23;0.80;99.90
10278;DHT22;5184;51.376;7.148;2024-01-15T15:48:50;0.80;99.90
10278;DHT22;5184;51.376;7.148;2024-01-15T15:51:18;0.80;99.90
10278;DHT22;5184;51.376;7.148;2024-01-15T15:53:45;0.80;99.90
10278;DHT22;5184;51.376;7.148;2024-01-15T15:56:13;0.80;99.90
10278;DHT22;5184;51.376;7.148;2024-01-15T15:58:40;0.80;99.90
10278;DHT22;5184;51.376;7.148;2024-01-15T16:01:07;0.80;99.90
10278;DHT22;5184;51.376;7.148;2024-01-15T16:03:35;0.80;99.90
10278;DHT22;5184;51.376;7.148;2024-01-15T16:06:01;0.80;99.90
10278;DHT22;5184;51.376;7.148;2024-01-15T16:08:28;0.80;99.90